sensor_id;sensor_type;location;lat;lon;timestamp;pressure;altitude;pressure_sealevel;temperature;humidity
53300;BME280;39187;48.476;8.310;2023-02-18T00:01:13;92180.28;;;6.70;100.00
53300;BME280;39187;48.476;8.310;2023-02-18T00:03:39;92177.50;;;6.56;100.00
53300;BME280;39187;48.476;8.310;2023-02-18T00:06:19;92181.38;;;6.65;100.00
53300;BME280;39187;48.476;8.310;2023-02-18T00:08:45;92179.09;;;6.64;100.00
53300;BME280;39187;48.476;8.310;2023-02-18T00:11:12;92176.88;;;6.69;100.00
53300;BME280;39187;48.476;8.310;2023-02-18T00:13:38;92169.97;;;6.61;100.00
53300;BME280;39187;48.476;8.310;2023-02-18T00:16:07;92180.56;;;6.61;100.00
53300;BME280;39187;48.476;8.310;2023-02-18T00:18:33;92176.78;;;6.62;100.00
53300;BME280;39187;48.476;8.310;2023-02-18T00:20:59;92171.50;;;6.59;100.00
53300;BME280;39187;48.476;8.310;2023-02-18T00:23:25;92172.69;;;6.68;100.00
53300;BME280;39187;48.476;8.310;2023-02-18T00:26:01;92171.09;;;6.57;100.00
53300;BME280;39187;48.476;8.310;2023-02-18T00:28:27;92184.22;;;6.46;100.00
53300;BME280;39187;48.476;8.310;2023-02-18T00:30:52;92180.91;;;6.60;100.00
53300;BME280;39187;48.476;8.310;2023-02-18T00:33:18;92173.06;;;6.67;100.00
53300;BME280;39187;48.476;8.310;2023-02-18T00:35:43;92185.50;;;6.66;100.00
53300;BME280;39187;48.476;8.310;2023-02-18T00:38:09;92175.97;;;6.55;100.00
53300;BME280;39187;48.476;8.310;2023-02-18T00:40:38;92180.13;;;6.52;100.00
53300;BME280;39187;48.476;8.310;2023-02-18T00:43:04;92171.72;;;6.43;100.00
53300;BME280;39187;48.476;8.310;2023-02-18T00:45:30;92171.59;;;6.73;100.00
53300;BME280;39187;48.476;8.310;2023-02-18T00:47:56;92167.41;;;6.68;100.00
53300;BME280;39187;48.476;8.310;2023-02-18T00:50:21;92156.34;;;6.56;100.00
53300;BME280;39187;48.476;8.310;2023-02-18T00:52:47;92163.22;;;6.67;100.00
53300;BME280;39187;48.476;8.310;2023-02-18T00:55:13;92164.34;;;6.66;100.00
53300;BME280;39187;48.476;8.310;2023-02-18T00:57:38;92156.41;;;6.63;100.00
53300;BME280;39187;48.476;8.310;2023-02-18T01:00:05;92162.94;;;6.76;100.00
53300;BME280;39187;48.476;8.310;2023-02-18T01:02:32;92147.78;;;6.73;100.00
53300;BME280;39187;48.476;8.310;2023-02-18T01:04:58;92157.50;;;6.58;100.00
53300;BME280;39187;48.476;8.310;2023-02-18T01:07:23;92154.94;;;6.69;100.00
53300;BME280;39187;48.476;8.310;2023-02-18T01:09:49;92148.41;;;6.56;100.00
53300;BME280;39187;48.476;8.310;2023-02-18T01:12:15;92153.97;;;6.47;100.00
53300;BME280;39187;48.476;8.310;2023-02-18T01:14:41;92157.88;;;6.60;100.00
53300;BME280;39187;48.476;8.310;2023-02-18T01:17:06;92151.47;;;6.61;100.00
53300;BME280;39187;48.476;8.310;2023-02-18T01:19:32;92159.81;;;6.67;100.00
53300;BME280;39187;48.476;8.310;2023-02-18T01:21:58;92146.66;;;6.70;100.00
53300;BME280;39187;48.476;8.310;2023-02-18T01:24:23;92164.75;;;6.65;100.00
53300;BME280;39187;48.476;8.310;2023-02-18T01:26:49;92149.28;;;6.70;100.00
53300;BME280;39187;48.476;8.310;2023-02-18T01:29:14;92149.16;;;6.53;100.00
53300;BME280;39187;48.476;8.310;2023-02-18T01:31:40;92138.28;;;6.65;100.00
53300;BME280;39187;48.476;8.310;2023-02-18T01:34:06;92135.88;;;6.49;100.00
53300;BME280;39187;48.476;8.310;2023-02-18T01:36:31;92128.75;;;6.57;100.00
53300;BME280;39187;48.476;8.310;2023-02-18T01:38:57;92135.84;;;6.46;100.00
53300;BME280;39187;48.476;8.310;2023-02-18T01:41:23;92134.41;;;6.55;100.00
53300;BME280;39187;48.476;8.310;2023-02-18T01:44:18;92132.53;;;6.56;100.00
53300;BME280;39187;48.476;8.310;2023-02-18T01:46:44;92132.47;;;6.49;100.00
53300;BME280;39187;48.476;8.310;2023-02-18T01:49:15;92131.41;;;6.57;100.00
53300;BME280;39187;48.476;8.310;2023-02-18T01:51:46;92127.94;;;6.49;100.00
53300;BME280;39187;48.476;8.310;2023-02-18T01:54:33;92126.75;;;6.43;100.00
53300;BME280;39187;48.476;8.310;2023-02-18T01:57:03;92129.63;;;6.27;100.00
53300;BME280;39187;48.476;8.310;2023-02-18T01:59:36;92128.75;;;6.57;100.00
53300;BME280;39187;48.476;8.310;2023-02-18T02:02:03;92120.91;;;6.64;100.00
53300;BME280;39187;48.476;8.310;2023-02-18T02:04:29;92120.38;;;6.48;100.00
53300;BME280;39187;48.476;8.310;2023-02-18T02:06:54;92124.66;;;6.59;100.00
53300;BME280;39187;48.476;8.310;2023-02-18T02:09:22;92118.19;;;6.57;100.00
53300;BME280;39187;48.476;8.310;2023-02-18T02:17:51;92120.41;;;6.51;100.00
53300;BME280;39187;48.476;8.310;2023-02-18T02:37:27;92097.38;;;6.52;100.00
53300;BME280;39187;48.476;8.310;2023-02-18T02:40:15;92106.50;;;6.58;100.00
53300;BME280;39187;48.476;8.310;2023-02-18T02:45:49;92104.97;;;6.57;100.00
53300;BME280;39187;48.476;8.310;2023-02-18T02:48:44;92106.38;;;6.43;100.00
53300;BME280;39187;48.476;8.310;2023-02-18T02:51:30;92112.81;;;6.46;100.00
53300;BME280;39187;48.476;8.310;2023-02-18T02:54:16;92095.44;;;6.45;100.00
53300;BME280;39187;48.476;8.310;2023-02-18T02:56:42;92093.56;;;6.46;100.00
53300;BME280;39187;48.476;8.310;2023-02-18T02:59:12;92115.84;;;6.48;100.00
53300;BME280;39187;48.476;8.310;2023-02-18T03:04:49;92111.03;;;6.61;100.00
53300;BME280;39187;48.476;8.310;2023-02-18T03:12:39;92106.78;;;6.49;100.00
53300;BME280;39187;48.476;8.310;2023-02-18T03:15:23;92098.13;;;6.52;100.00
53300;BME280;39187;48.476;8.310;2023-02-18T03:18:03;92100.16;;;6.69;100.00
53300;BME280;39187;48.476;8.310;2023-02-18T03:20:39;92092.88;;;6.56;100.00
53300;BME280;39187;48.476;8.310;2023-02-18T03:23:10;92093.31;;;6.65;100.00
53300;BME280;39187;48.476;8.310;2023-02-18T03:25:41;92091.06;;;6.67;100.00
53300;BME280;39187;48.476;8.310;2023-02-18T03:28:20;92095.63;;;6.70;100.00
53300;BME280;39187;48.476;8.310;2023-02-18T03:30:50;92088.03;;;6.68;100.00
53300;BME280;39187;48.476;8.310;2023-02-18T03:33:25;92090.53;;;6.47;100.00
53300;BME280;39187;48.476;8.310;2023-02-18T03:35:53;92084.09;;;6.48;100.00
53300;BME280;39187;48.476;8.310;2023-02-18T03:40:49;92075.47;;;6.55;100.00
53300;BME280;39187;48.476;8.310;2023-02-18T03:43:15;92076.75;;;6.71;100.00
53300;BME280;39187;48.476;8.310;2023-02-18T03:45:40;92070.88;;;6.44;100.00
53300;BME280;39187;48.476;8.310;2023-02-18T03:48:06;92058.75;;;6.40;100.00
53300;BME280;39187;48.476;8.310;2023-02-18T03:50:32;92058.53;;;6.59;100.00
53300;BME280;39187;48.476;8.310;2023-02-18T03:52:58;92054.94;;;6.37;100.00
53300;BME280;39187;48.476;8.310;2023-02-18T03:55:23;92056.88;;;6.44;100.00
53300;BME280;39187;48.476;8.310;2023-02-18T03:57:49;92054.59;;;6.39;100.00
53300;BME280;39187;48.476;8.310;2023-02-18T04:00:16;92040.25;;;6.40;100.00
53300;BME280;39187;48.476;8.310;2023-02-18T04:02:41;92042.50;;;6.41;100.00
53300;BME280;39187;48.476;8.310;2023-02-18T04:05:08;92028.94;;;6.43;100.00
53300;BME280;39187;48.476;8.310;2023-02-18T04:07:34;92031.13;;;6.34;100.00
53300;BME280;39187;48.476;8.310;2023-02-18T04:10:00;92027.03;;;6.40;100.00
53300;BME280;39187;48.476;8.310;2023-02-18T04:12:26;92014.47;;;6.30;100.00
53300;BME280;39187;48.476;8.310;2023-02-18T04:14:51;92032.63;;;6.31;100.00
53300;BME280;39187;48.476;8.310;2023-02-18T04:17:17;92021.75;;;6.43;100.00
53300;BME280;39187;48.476;8.310;2023-02-18T04:19:43;92016.06;;;6.41;100.00
53300;BME280;39187;48.476;8.310;2023-02-18T04:22:09;92014.75;;;6.18;100.00
53300;BME280;39187;48.476;8.310;2023-02-18T04:24:34;92018.28;;;6.32;100.00
53300;BME280;39187;48.476;8.310;2023-02-18T04:27:00;92017.03;;;6.19;100.00
53300;BME280;39187;48.476;8.310;2023-02-18T04:29:26;92029.56;;;6.26;100.00
53300;BME280;39187;48.476;8.310;2023-02-18T04:31:54;92036.38;;;6.30;100.00
53300;BME280;39187;48.476;8.310;2023-02-18T04:34:19;92032.31;;;6.40;100.00
53300;BME280;39187;48.476;8.310;2023-02-18T04:36:45;92029.63;;;6.36;100.00
53300;BME280;39187;48.476;8.310;2023-02-18T04:39:11;92024.06;;;6.49;100.00
53300;BME280;39187;48.476;8.310;2023-02-18T04:41:36;92034.22;;;6.47;100.00
53300;BME280;39187;48.476;8.310;2023-02-18T04:44:02;92035.44;;;6.53;100.00
53300;BME280;39187;48.476;8.310;2023-02-18T04:46:28;92033.09;;;6.44;100.00
53300;BME280;39187;48.476;8.310;2023-02-18T04:48:53;92027.41;;;6.42;100.00
53300;BME280;39187;48.476;8.310;2023-02-18T04:51:19;92032.63;;;6.31;100.00
53300;BME280;39187;48.476;8.310;2023-02-18T04:53:45;92035.00;;;6.47;100.00
53300;BME280;39187;48.476;8.310;2023-02-18T04:56:11;92032.63;;;6.31;100.00
53300;BME280;39187;48.476;8.310;2023-02-18T04:58:37;92039.09;;;6.41;100.00
53300;BME280;39187;48.476;8.310;2023-02-18T05:01:03;92040.72;;;6.53;100.00
53300;BME280;39187;48.476;8.310;2023-02-18T05:03:30;92027.47;;;6.49;100.00
53300;BME280;39187;48.476;8.310;2023-02-18T05:05:56;92037.63;;;6.47;100.00
53300;BME280;39187;48.476;8.310;2023-02-18T05:08:21;92029.69;;;6.47;100.00
53300;BME280;39187;48.476;8.310;2023-02-18T05:10:47;92036.22;;;6.57;100.00
53300;BME280;39187;48.476;8.310;2023-02-18T05:13:13;92025.97;;;6.55;100.00
53300;BME280;39187;48.476;8.310;2023-02-18T05:15:38;92031.22;;;6.48;100.00
53300;BME280;39187;48.476;8.310;2023-02-18T05:18:04;92033.53;;;6.53;100.00
53300;BME280;39187;48.476;8.310;2023-02-18T05:20:30;92033.91;;;6.55;100.00
53300;BME280;39187;48.476;8.310;2023-02-18T05:22:55;92036.91;;;6.54;100.00
53300;BME280;39187;48.476;8.310;2023-02-18T05:25:21;92025.88;;;6.41;100.00
53300;BME280;39187;48.476;8.310;2023-02-18T05:27:47;92029.28;;;6.38;100.00
53300;BME280;39187;48.476;8.310;2023-02-18T05:30:13;92028.63;;;6.55;100.00
53300;BME280;39187;48.476;8.310;2023-02-18T05:32:39;92026.28;;;6.43;100.00
53300;BME280;39187;48.476;8.310;2023-02-18T05:35:05;92021.03;;;6.50;100.00
53300;BME280;39187;48.476;8.310;2023-02-18T05:37:30;92026.75;;;6.56;100.00
53300;BME280;39187;48.476;8.310;2023-02-18T05:39:56;92017.75;;;6.64;100.00
53300;BME280;39187;48.476;8.310;2023-02-18T05:42:22;92013.41;;;6.38;100.00
53300;BME280;39187;48.476;8.310;2023-02-18T05:44:47;92009.69;;;6.46;100.00
53300;BME280;39187;48.476;8.310;2023-02-18T05:47:13;92007.78;;;6.47;100.00
53300;BME280;39187;48.476;8.310;2023-02-18T05:49:40;92022.53;;;6.48;100.00
53300;BME280;39187;48.476;8.310;2023-02-18T05:52:07;92010.16;;;6.62;100.00
53300;BME280;39187;48.476;8.310;2023-02-18T05:54:34;92010.44;;;6.47;100.00
53300;BME280;39187;48.476;8.310;2023-02-18T05:57:00;92002.22;;;6.59;100.00
53300;BME280;39187;48.476;8.310;2023-02-18T05:59:26;92001.41;;;6.51;100.00
53300;BME280;39187;48.476;8.310;2023-02-18T06:01:52;92012.81;;;6.59;100.00
53300;BME280;39187;48.476;8.310;2023-02-18T06:04:18;92015.00;;;6.50;100.00
53300;BME280;39187;48.476;8.310;2023-02-18T06:06:44;92001.75;;;6.46;100.00
53300;BME280;39187;48.476;8.310;2023-02-18T06:09:09;92006.94;;;6.32;100.00
53300;BME280;39187;48.476;8.310;2023-02-18T06:11:35;92002.13;;;6.44;100.00
53300;BME280;39187;48.476;8.310;2023-02-18T06:14:02;92008.53;;;6.43;100.00
53300;BME280;39187;48.476;8.310;2023-02-18T06:16:28;92002.00;;;6.27;100.00
53300;BME280;39187;48.476;8.310;2023-02-18T06:18:53;92008.84;;;6.35;100.00
53300;BME280;39187;48.476;8.310;2023-02-18T06:21:19;92004.69;;;6.34;100.00
53300;BME280;39187;48.476;8.310;2023-02-18T06:23:44;92005.38;;;6.27;100.00
53300;BME280;39187;48.476;8.310;2023-02-18T06:26:10;92013.06;;;6.43;100.00
53300;BME280;39187;48.476;8.310;2023-02-18T06:28:36;92002.78;;;6.34;100.00
53300;BME280;39187;48.476;8.310;2023-02-18T06:31:04;91995.31;;;6.47;100.00
53300;BME280;39187;48.476;8.310;2023-02-18T06:33:32;92003.59;;;6.42;100.00
53300;BME280;39187;48.476;8.310;2023-02-18T06:36:01;91999.03;;;6.35;100.00
53300;BME280;39187;48.476;8.310;2023-02-18T06:38:28;92000.56;;;6.36;100.00
53300;BME280;39187;48.476;8.310;2023-02-18T06:40:53;92001.75;;;6.46;100.00
53300;BME280;39187;48.476;8.310;2023-02-18T06:43:20;92014.53;;;6.33;100.00
53300;BME280;39187;48.476;8.310;2023-02-18T06:45:45;92001.63;;;6.28;100.00
53300;BME280;39187;48.476;8.310;2023-02-18T06:48:12;92013.06;;;6.39;100.00
53300;BME280;39187;48.476;8.310;2023-02-18T06:50:39;91999.47;;;6.44;100.00
53300;BME280;39187;48.476;8.310;2023-02-18T06:53:05;92016.06;;;6.41;100.00
53300;BME280;39187;48.476;8.310;2023-02-18T06:55:31;92006.59;;;6.37;100.00
53300;BME280;39187;48.476;8.310;2023-02-18T06:57:56;91998.31;;;6.42;100.00
53300;BME280;39187;48.476;8.310;2023-02-18T07:00:22;92005.06;;;6.36;100.00
53300;BME280;39187;48.476;8.310;2023-02-18T07:02:48;91999.47;;;6.44;100.00
53300;BME280;39187;48.476;8.310;2023-02-18T07:05:13;92005.06;;;6.36;100.00
53300;BME280;39187;48.476;8.310;2023-02-18T07:07:39;92008.03;;;6.27;100.00
53300;BME280;39187;48.476;8.310;2023-02-18T07:10:07;92005.41;;;6.31;100.00
53300;BME280;39187;48.476;8.310;2023-02-18T07:12:33;92001.00;;;6.46;100.00
53300;BME280;39187;48.476;8.310;2023-02-18T07:14:58;92005.88;;;6.40;100.00
53300;BME280;39187;48.476;8.310;2023-02-18T07:17:24;91999.09;;;6.42;100.00
53300;BME280;39187;48.476;8.310;2023-02-18T07:19:49;91995.25;;;6.33;100.00
53300;BME280;39187;48.476;8.310;2023-02-18T07:22:15;92011.09;;;6.33;100.00
53300;BME280;39187;48.476;8.310;2023-02-18T07:24:41;92002.75;;;6.27;100.00
53300;BME280;39187;48.476;8.310;2023-02-18T07:27:07;91997.50;;;6.34;100.00
53300;BME280;39187;48.476;8.310;2023-02-18T07:29:33;92014.88;;;6.35;100.00
53300;BME280;39187;48.476;8.310;2023-02-18T07:31:58;92011.63;;;6.53;100.00
53300;BME280;39187;48.476;8.310;2023-02-18T07:34:24;92018.28;;;6.36;100.00
53300;BME280;39187;48.476;8.310;2023-02-18T07:36:50;92014.22;;;6.46;100.00
53300;BME280;39187;48.476;8.310;2023-02-18T07:39:15;92018.72;;;6.41;100.00
53300;BME280;39187;48.476;8.310;2023-02-18T07:41:46;92018.81;;;6.56;100.00
53300;BME280;39187;48.476;8.310;2023-02-18T07:44:13;92012.66;;;6.41;100.00
53300;BME280;39187;48.476;8.310;2023-02-18T07:46:40;92012.34;;;6.53;100.00
53300;BME280;39187;48.476;8.310;2023-02-18T07:49:06;92017.91;;;6.34;100.00
53300;BME280;39187;48.476;8.310;2023-02-18T07:51:32;92022.47;;;6.37;100.00
53300;BME280;39187;48.476;8.310;2023-02-18T07:53:58;92012.19;;;6.28;100.00
53300;BME280;39187;48.476;8.310;2023-02-18T07:56:23;92006.97;;;6.35;100.00
53300;BME280;39187;48.476;8.310;2023-02-18T07:58:49;92018.41;;;6.50;100.00
53300;BME280;39187;48.476;8.310;2023-02-18T08:01:14;92021.41;;;6.45;100.00
53300;BME280;39187;48.476;8.310;2023-02-18T08:03:40;92001.84;;;6.60;100.00
53300;BME280;39187;48.476;8.310;2023-02-18T08:06:07;92011.28;;;6.61;100.00
53300;BME280;39187;48.476;8.310;2023-02-18T08:08:33;92007.16;;;6.67;100.00
53300;BME280;39187;48.476;8.310;2023-02-18T08:11:00;92008.69;;;6.68;100.00
53300;BME280;39187;48.476;8.310;2023-02-18T08:13:28;92023.69;;;6.54;100.00
53300;BME280;39187;48.476;8.310;2023-02-18T08:15:55;92012.34;;;6.46;100.00
53300;BME280;39187;48.476;8.310;2023-02-18T08:18:22;92013.84;;;6.47;100.00
53300;BME280;39187;48.476;8.310;2023-02-18T08:20:48;92014.53;;;6.33;100.00
53300;BME280;39187;48.476;8.310;2023-02-18T08:23:18;92013.16;;;6.57;100.00
53300;BME280;39187;48.476;8.310;2023-02-18T08:25:48;92011.94;;;6.48;100.00
53300;BME280;39187;48.476;8.310;2023-02-18T08:28:15;92016.81;;;6.42;100.00
53300;BME280;39187;48.476;8.310;2023-02-18T08:30:48;92011.69;;;6.67;100.00
53300;BME280;39187;48.476;8.310;2023-02-18T08:33:15;91999.19;;;6.57;100.00
53300;BME280;39187;48.476;8.310;2023-02-18T08:35:41;92016.63;;;6.65;100.00
53300;BME280;39187;48.476;8.310;2023-02-18T08:38:07;92009.72;;;6.53;100.00
53300;BME280;39187;48.476;8.310;2023-02-18T08:40:33;92020.38;;;6.64;100.00
53300;BME280;39187;48.476;8.310;2023-02-18T08:42:58;92012.41;;;6.60;100.00
53300;BME280;39187;48.476;8.310;2023-02-18T08:45:24;92007.56;;;6.69;100.00
53300;BME280;39187;48.476;8.310;2023-02-18T08:47:50;92020.66;;;6.48;100.00
53300;BME280;39187;48.476;8.310;2023-02-18T08:50:16;92015.78;;;6.54;100.00
53300;BME280;39187;48.476;8.310;2023-02-18T08:52:42;92014.53;;;6.33;100.00
53300;BME280;39187;48.476;8.310;2023-02-18T08:55:08;92016.94;;;6.56;100.00
53300;BME280;39187;48.476;8.310;2023-02-18T08:57:33;92003.66;;;6.46;100.00
53300;BME280;39187;48.476;8.310;2023-02-18T08:59:59;92008.59;;;6.51;100.00
53300;BME280;39187;48.476;8.310;2023-02-18T09:02:25;92006.78;;;6.65;100.00
53300;BME280;39187;48.476;8.310;2023-02-18T09:04:53;92007.53;;;6.66;100.00
53300;BME280;39187;48.476;8.310;2023-02-18T09:07:19;92003.00;;;6.66;100.00
53300;BME280;39187;48.476;8.310;2023-02-18T09:09:44;92015.09;;;6.64;100.00
53300;BME280;39187;48.476;8.310;2023-02-18T09:12:13;92004.81;;;6.52;100.00
53300;BME280;39187;48.476;8.310;2023-02-18T09:14:38;92016.31;;;6.77;100.00
53300;BME280;39187;48.476;8.310;2023-02-18T09:17:04;92019.28;;;6.68;100.00
53300;BME280;39187;48.476;8.310;2023-02-18T09:19:30;92015.81;;;6.61;100.00
53300;BME280;39187;48.476;8.310;2023-02-18T09:21:55;92015.06;;;6.60;100.00
53300;BME280;39187;48.476;8.310;2023-02-18T09:24:22;92002.94;;;6.56;100.00
53300;BME280;39187;48.476;8.310;2023-02-18T09:26:50;91996.22;;;6.72;100.00
53300;BME280;39187;48.476;8.310;2023-02-18T09:29:16;92000.03;;;6.75;100.00
53300;BME280;39187;48.476;8.310;2023-02-18T09:31:44;91990.56;;;6.70;100.00
53300;BME280;39187;48.476;8.310;2023-02-18T09:34:09;91986.09;;;6.78;100.00
53300;BME280;39187;48.476;8.310;2023-02-18T09:36:35;91993.66;;;6.87;100.00
53300;BME280;39187;48.476;8.310;2023-02-18T09:39:01;91984.59;;;6.88;100.00
53300;BME280;39187;48.476;8.310;2023-02-18T09:44:31;92004.63;;;6.81;100.00
53300;BME280;39187;48.476;8.310;2023-02-18T09:49:35;91983.00;;;6.65;100.00
53300;BME280;39187;48.476;8.310;2023-02-18T09:52:12;91985.69;;;6.79;100.00
53300;BME280;39187;48.476;8.310;2023-02-18T09:54:38;91983.41;;;6.74;100.00
53300;BME280;39187;48.476;8.310;2023-02-18T09:57:05;91991.09;;;7.01;100.00
53300;BME280;39187;48.476;8.310;2023-02-18T09:59:35;91976.72;;;6.95;100.00
53300;BME280;39187;48.476;8.310;2023-02-18T10:02:01;91972.16;;;6.92;100.00
53300;BME280;39187;48.476;8.310;2023-02-18T10:04:36;91966.84;;;6.92;100.00
53300;BME280;39187;48.476;8.310;2023-02-18T10:07:05;91975.16;;;6.87;100.00
53300;BME280;39187;48.476;8.310;2023-02-18T10:09:36;91979.75;;;6.97;100.00
53300;BME280;39187;48.476;8.310;2023-02-18T10:12:24;91975.22;;;7.01;100.00
53300;BME280;39187;48.476;8.310;2023-02-18T10:14:57;91980.56;;;7.15;100.00
53300;BME280;39187;48.476;8.310;2023-02-18T10:17:26;91979.06;;;7.10;100.00
53300;BME280;39187;48.476;8.310;2023-02-18T10:19:53;91974.50;;;7.04;100.00
53300;BME280;39187;48.476;8.310;2023-02-18T10:22:21;91974.81;;;6.99;100.00
53300;BME280;39187;48.476;8.310;2023-02-18T10:24:51;91989.56;;;6.96;100.00
53300;BME280;39187;48.476;8.310;2023-02-18T10:27:24;91989.66;;;7.10;100.00
53300;BME280;39187;48.476;8.310;2023-02-18T10:29:51;91994.97;;;7.24;100.00
53300;BME280;39187;48.476;8.310;2023-02-18T10:37:53;92002.56;;;7.33;100.00
53300;BME280;39187;48.476;8.310;2023-02-18T10:40:49;91989.03;;;7.49;100.00
53300;BME280;39187;48.476;8.310;2023-02-18T10:43:40;91990.44;;;7.25;100.00
53300;BME280;39187;48.476;8.310;2023-02-18T10:51:18;92001.81;;;7.36;100.00
53300;BME280;39187;48.476;8.310;2023-02-18T10:53:45;91994.97;;;7.24;100.00
53300;BME280;39187;48.476;8.310;2023-02-18T10:56:34;91985.13;;;7.21;100.00
53300;BME280;39187;48.476;8.310;2023-02-18T10:59:20;91991.59;;;7.31;100.00
53300;BME280;39187;48.476;8.310;2023-02-18T11:01:55;91991.59;;;7.31;100.00
53300;BME280;39187;48.476;8.310;2023-02-18T11:04:26;91993.50;;;7.34;100.00
53300;BME280;39187;48.476;8.310;2023-02-18T11:06:53;91982.53;;;7.43;100.00
53300;BME280;39187;48.476;8.310;2023-02-18T11:09:41;91981.81;;;7.49;100.00
53300;BME280;39187;48.476;8.310;2023-02-18T11:12:29;91983.69;;;7.35;100.00
53300;BME280;39187;48.476;8.310;2023-02-18T11:15:23;91994.72;;;7.58;100.00
53300;BME280;39187;48.476;8.310;2023-02-18T11:17:51;92006.44;;;7.60;100.00
53300;BME280;39187;48.476;8.310;2023-02-18T11:20:30;91980.34;;;7.66;100.00
53300;BME280;39187;48.476;8.310;2023-02-18T11:25:33;91983.38;;;7.64;100.00
53300;BME280;39187;48.476;8.310;2023-02-18T11:28:03;91969.34;;;7.53;100.00
53300;BME280;39187;48.476;8.310;2023-02-18T11:30:39;91961.06;;;7.76;100.00
53300;BME280;39187;48.476;8.310;2023-02-18T11:33:19;91955.75;;;7.73;100.00
53300;BME280;39187;48.476;8.310;2023-02-18T11:35:56;91947.03;;;7.61;100.00
53300;BME280;39187;48.476;8.310;2023-02-18T11:40:55;91947.06;;;8.07;100.00
53300;BME280;39187;48.476;8.310;2023-02-18T11:43:27;91948.97;;;8.18;100.00
53300;BME280;39187;48.476;8.310;2023-02-18T11:46:14;91949.72;;;8.18;100.00
53300;BME280;39187;48.476;8.310;2023-02-18T11:48:40;91938.75;;;8.13;100.00
53300;BME280;39187;48.476;8.310;2023-02-18T11:53:53;91917.53;;;8.13;100.00
53300;BME280;39187;48.476;8.310;2023-02-18T11:56:20;91932.66;;;8.09;100.00
53300;BME280;39187;48.476;8.310;2023-02-18T11:58:47;91911.84;;;8.03;100.00
53300;BME280;39187;48.476;8.310;2023-02-18T12:04:27;91905.78;;;8.17;100.00
53300;BME280;39187;48.476;8.310;2023-02-18T12:07:13;91914.09;;;8.16;100.00
53300;BME280;39187;48.476;8.310;2023-02-18T12:09:47;91900.50;;;8.03;100.00
53300;BME280;39187;48.476;8.310;2023-02-18T12:14:53;91913.38;;;8.19;100.00
53300;BME280;39187;48.476;8.310;2023-02-18T12:22:42;91890.97;;;8.27;100.00
53300;BME280;39187;48.476;8.310;2023-02-18T12:37:12;91891.38;;;8.29;100.00
53300;BME280;39187;48.476;8.310;2023-02-18T12:42:47;91891.38;;;8.43;100.00
53300;BME280;39187;48.476;8.310;2023-02-18T12:46:12;91879.63;;;8.16;100.00
53300;BME280;39187;48.476;8.310;2023-02-18T12:51:24;91870.53;;;8.20;100.00
53300;BME280;39187;48.476;8.310;2023-02-18T13:05:10;91884.53;;;8.42;100.00
53300;BME280;39187;48.476;8.310;2023-02-18T13:10:39;91865.94;;;8.63;100.00
53300;BME280;39187;48.476;8.310;2023-02-18T13:13:21;91879.94;;;8.67;100.00
53300;BME280;39187;48.476;8.310;2023-02-18T13:15:58;91873.88;;;8.63;100.00
53300;BME280;39187;48.476;8.310;2023-02-18T13:18:38;91874.28;;;8.55;100.00
53300;BME280;39187;48.476;8.310;2023-02-18T13:21:07;91868.59;;;8.45;100.00
53300;BME280;39187;48.476;8.310;2023-02-18T13:23:37;91869.72;;;8.52;100.00
53300;BME280;39187;48.476;8.310;2023-02-18T13:26:05;91852.69;;;8.45;100.00
53300;BME280;39187;48.476;8.310;2023-02-18T13:28:57;91857.59;;;8.54;100.00
53300;BME280;39187;48.476;8.310;2023-02-18T13:31:51;91856.44;;;8.59;100.00
53300;BME280;39187;48.476;8.310;2023-02-18T13:37:35;91858.41;;;8.44;100.00
53300;BME280;39187;48.476;8.310;2023-02-18T13:40:13;91850.81;;;8.46;100.00
53300;BME280;39187;48.476;8.310;2023-02-18T13:42:38;91863.34;;;8.35;100.00
53300;BME280;39187;48.476;8.310;2023-02-18T13:45:21;91862.56;;;8.49;100.00
53300;BME280;39187;48.476;8.310;2023-02-18T13:47:48;91865.19;;;8.45;100.00
53300;BME280;39187;48.476;8.310;2023-02-18T13:55:52;91862.50;;;8.63;100.00
53300;BME280;39187;48.476;8.310;2023-02-18T14:01:36;91862.53;;;8.45;100.00
53300;BME280;39187;48.476;8.310;2023-02-18T14:04:03;91850.44;;;8.40;100.00
53300;BME280;39187;48.476;8.310;2023-02-18T14:06:34;91852.75;;;8.35;100.00
53300;BME280;39187;48.476;8.310;2023-02-18T14:14:51;91846.28;;;8.39;100.00
53300;BME280;39187;48.476;8.310;2023-02-18T14:19:52;91840.25;;;8.32;100.00
53300;BME280;39187;48.476;8.310;2023-02-18T14:22:28;91846.28;;;8.39;100.00
53300;BME280;39187;48.476;8.310;2023-02-18T14:25:02;91839.09;;;8.43;100.00
53300;BME280;39187;48.476;8.310;2023-02-18T14:27:28;91839.84;;;8.40;100.00
53300;BME280;39187;48.476;8.310;2023-02-18T14:30:02;91850.81;;;8.42;100.00
53300;BME280;39187;48.476;8.310;2023-02-18T14:32:40;91837.53;;;8.50;100.00
53300;BME280;39187;48.476;8.310;2023-02-18T14:38:29;91848.94;;;8.36;100.00
53300;BME280;39187;48.476;8.310;2023-02-18T14:46:23;91851.59;;;8.25;100.00
53300;BME280;39187;48.476;8.310;2023-02-18T14:51:44;91851.25;;;8.16;100.00
53300;BME280;39187;48.476;8.310;2023-02-18T14:54:18;91843.66;;;8.36;100.00
53300;BME280;39187;48.476;8.310;2023-02-18T14:57:02;91844.81;;;8.17;100.00
53300;BME280;39187;48.476;8.310;2023-02-18T14:59:34;91834.94;;;8.18;100.00
53300;BME280;39187;48.476;8.310;2023-02-18T15:02:00;91836.06;;;8.13;100.00
53300;BME280;39187;48.476;8.310;2023-02-18T15:04:26;91822.81;;;8.24;100.00
53300;BME280;39187;48.476;8.310;2023-02-18T15:07:04;91827.72;;;8.36;100.00
53300;BME280;39187;48.476;8.310;2023-02-18T15:09:30;91823.56;;;8.28;100.00
53300;BME280;39187;48.476;8.310;2023-02-18T15:12:04;91838.34;;;8.25;100.00
53300;BME280;39187;48.476;8.310;2023-02-18T15:14:38;91827.00;;;8.18;100.00
53300;BME280;39187;48.476;8.310;2023-02-18T15:17:07;91824.75;;;8.09;100.00
53300;BME280;39187;48.476;8.310;2023-02-18T15:19:43;91828.84;;;8.28;100.00
53300;BME280;39187;48.476;8.310;2023-02-18T15:22:20;91823.94;;;8.37;99.78
53300;BME280;39187;48.476;8.310;2023-02-18T15:24:46;91819.38;;;8.41;99.01
53300;BME280;39187;48.476;8.310;2023-02-18T15:27:31;91807.31;;;8.15;99.83